createdAt,value
2023-02-28T00:01:13.694Z,101856.28
2023-02-28T00:03:41.680Z,101744.53
2023-02-28T00:06:10.607Z,101823.91
2023-02-28T00:08:38.772Z,101851.44
2023-02-28T00:11:10.434Z,101848.88
2023-02-28T00:13:41.583Z,101848.81
2023-02-28T00:16:12.190Z,101849.56
2023-02-28T00:18:40.197Z,101849.56
2023-02-28T00:21:08.867Z,101714.00
2023-02-28T00:23:37.069Z,101809.66
2023-02-28T00:26:05.767Z,101851.53
2023-02-28T00:28:35.308Z,101847.97
2023-02-28T00:31:03.234Z,101755.16
2023-02-28T00:33:31.506Z,101844.25
2023-02-28T00:36:07.752Z,101846.19
2023-02-28T00:38:37.716Z,101810.47
2023-02-28T00:41:06.380Z,101830.00
2023-02-28T00:43:37.410Z,101837.97
2023-02-28T00:46:05.994Z,101713.13
2023-02-28T00:48:34.312Z,101834.63
2023-02-28T00:51:02.679Z,101775.75
2023-02-28T00:53:31.124Z,101801.72
2023-02-28T00:55:59.502Z,101817.97
2023-02-28T00:58:27.945Z,101849.13
2023-02-28T01:00:57.318Z,101852.66
2023-02-28T01:03:25.153Z,101718.09
2023-02-28T01:05:54.230Z,101817.88
2023-02-28T01:08:22.286Z,101851.94
2023-02-28T01:10:51.958Z,101859.19
2023-02-28T01:13:20.397Z,101859.78
2023-02-28T01:15:52.386Z,101837.13
2023-02-28T01:18:22.782Z,101854.03
2023-02-28T01:20:52.662Z,101855.22
2023-02-28T01:23:20.906Z,101859.69
2023-02-28T01:25:48.757Z,101862.22
2023-02-28T01:28:16.667Z,101865.69
2023-02-28T01:30:44.601Z,101839.91
2023-02-28T01:33:12.475Z,101863.81
2023-02-28T01:35:41.674Z,101859.25
2023-02-28T01:38:21.687Z,101861.72
2023-02-28T01:40:50.948Z,101865.88
2023-02-28T01:43:24.223Z,101853.69
2023-02-28T01:45:52.842Z,101856.00
2023-02-28T01:48:23.055Z,101693.47
2023-02-28T01:50:52.282Z,101841.34
2023-02-28T01:53:26.990Z,101863.25
2023-02-28T01:55:56.250Z,101827.34
2023-02-28T01:58:24.975Z,101851.25
2023-02-28T02:00:53.851Z,101848.38
2023-02-28T02:03:22.785Z,101851.00
2023-02-28T02:05:52.189Z,101831.13
2023-02-28T02:08:23.618Z,101832.81
2023-02-28T02:10:56.340Z,101845.31
2023-02-28T02:13:39.230Z,101710.03
2023-02-28T02:16:21.010Z,101762.66
2023-02-28T02:18:53.127Z,101852.59
2023-02-28T02:21:42.984Z,101845.09
2023-02-28T02:24:48.432Z,101737.25
2023-02-28T02:27:25.751Z,101848.50
2023-02-28T02:30:14.677Z,101846.66
2023-02-28T02:32:54.460Z,101839.28
2023-02-28T02:35:30.755Z,101838.13
2023-02-28T02:38:09.277Z,101787.97
2023-02-28T02:40:45.043Z,101829.22
2023-02-28T02:43:19.107Z,101833.81
2023-02-28T02:45:51.534Z,101830.69
2023-02-28T02:48:23.420Z,101830.00
2023-02-28T02:50:56.308Z,101822.34
2023-02-28T02:53:29.790Z,101831.75
2023-02-28T02:56:01.256Z,101826.13
2023-02-28T02:58:34.078Z,101822.53
2023-02-28T03:01:04.448Z,101831.13
2023-02-28T03:03:34.871Z,101817.53
2023-02-28T03:06:06.915Z,101831.34
2023-02-28T03:08:37.757Z,101820.19
2023-02-28T03:11:10.238Z,101795.09
2023-02-28T03:13:56.970Z,101840.25
2023-02-28T03:16:38.765Z,101834.88
2023-02-28T03:19:27.649Z,101833.25
2023-02-28T03:22:09.418Z,101826.16
2023-02-28T03:24:45.237Z,101631.94
2023-02-28T03:27:23.379Z,101814.41
2023-02-28T03:29:57.495Z,101827.06
2023-02-28T03:32:30.857Z,101831.31
2023-02-28T03:35:06.980Z,101831.19
2023-02-28T03:37:40.242Z,101829.53
2023-02-28T03:40:14.529Z,101832.31
2023-02-28T03:42:46.419Z,101834.88
2023-02-28T03:45:18.626Z,101813.22
2023-02-28T03:47:51.277Z,101834.00
2023-02-28T03:50:22.602Z,101792.78
2023-02-28T03:53:01.101Z,101830.75
2023-02-28T03:55:33.657Z,101832.78
2023-02-28T03:58:07.617Z,101777.84
2023-02-28T04:00:40.151Z,101832.31
2023-02-28T04:03:08.284Z,101829.88
2023-02-28T04:05:50.849Z,101831.59
2023-02-28T04:08:20.051Z,101796.78
2023-02-28T04:10:52.095Z,101796.94
2023-02-28T04:13:20.144Z,101828.91
2023-02-28T04:15:47.940Z,101827.72
2023-02-28T04:18:16.008Z,101794.44
2023-02-28T04:20:43.845Z,101807.19
2023-02-28T04:23:11.728Z,101801.94
2023-02-28T04:25:41.783Z,101837.63
2023-02-28T04:28:09.389Z,101835.84
2023-02-28T04:30:37.327Z,101804.56
2023-02-28T04:33:05.468Z,101821.47
2023-02-28T04:35:33.966Z,101828.41
2023-02-28T04:38:01.781Z,101841.88
2023-02-28T04:40:29.701Z,101842.56
2023-02-28T04:42:58.872Z,101801.44
2023-02-28T04:45:26.923Z,101756.06
2023-02-28T04:47:54.886Z,101849.28
2023-02-28T04:50:22.690Z,101849.66
2023-02-28T04:52:50.503Z,101852.78
2023-02-28T04:55:18.239Z,101851.13
2023-02-28T04:57:46.082Z,101834.13
2023-02-28T05:00:17.710Z,101849.31
2023-02-28T05:02:45.842Z,101848.31
2023-02-28T05:05:18.962Z,101823.53
2023-02-28T05:07:47.207Z,101821.75
2023-02-28T05:10:15.312Z,101852.06
2023-02-28T05:12:43.351Z,101853.66
2023-02-28T05:15:16.505Z,101859.78
2023-02-28T05:17:45.149Z,101736.16
2023-02-28T05:20:15.980Z,101816.50
2023-02-28T05:22:45.477Z,101684.94
2023-02-28T05:25:18.113Z,101858.31
2023-02-28T05:27:46.075Z,101853.03
2023-02-28T05:30:14.299Z,101741.63
2023-02-28T05:32:44.573Z,101825.53
2023-02-28T05:35:13.573Z,101857.78
2023-02-28T05:37:41.596Z,101841.91
2023-02-28T05:40:11.356Z,101865.06
2023-02-28T05:42:39.578Z,101861.09
2023-02-28T05:45:09.121Z,101837.94
2023-02-28T05:47:37.402Z,101871.72
2023-02-28T05:50:08.063Z,101740.59
2023-02-28T05:52:35.901Z,101869.03
2023-02-28T05:55:03.863Z,101850.66
2023-02-28T05:57:31.696Z,101869.41
2023-02-28T05:59:59.557Z,101870.06
2023-02-28T06:02:27.715Z,101854.31
2023-02-28T06:04:55.617Z,101857.59
2023-02-28T06:07:25.039Z,101873.25
2023-02-28T06:09:52.870Z,101882.66
2023-02-28T06:12:20.861Z,101878.78
2023-02-28T06:14:48.674Z,101878.22
2023-02-28T06:17:16.490Z,101884.63
2023-02-28T06:19:44.408Z,101892.63
2023-02-28T06:22:12.202Z,101891.94
2023-02-28T06:24:41.445Z,101889.78
2023-02-28T06:27:09.763Z,101893.06
2023-02-28T06:29:40.821Z,101889.53
2023-02-28T06:32:08.842Z,101897.06
2023-02-28T06:34:37.744Z,101858.66
2023-02-28T06:37:05.520Z,101895.44
2023-02-28T06:39:33.709Z,101895.31
2023-02-28T06:42:03.228Z,101892.19
2023-02-28T06:44:36.059Z,101901.38
2023-02-28T06:47:05.340Z,101896.38
2023-02-28T06:49:33.787Z,101909.94
2023-02-28T06:52:01.794Z,101909.34
2023-02-28T06:54:29.608Z,101897.91
2023-02-28T06:56:57.801Z,101905.56
2023-02-28T06:59:27.058Z,101910.03
2023-02-28T07:01:56.100Z,101818.41
2023-02-28T07:04:24.261Z,101904.94
2023-02-28T07:06:52.117Z,101745.97
2023-02-28T07:09:20.222Z,101896.78
2023-02-28T07:11:48.165Z,101918.59
2023-02-28T07:14:16.134Z,101831.25
2023-02-28T07:16:46.526Z,101922.19
2023-02-28T07:19:14.376Z,101911.31
2023-02-28T07:21:42.306Z,101917.81
2023-02-28T07:24:10.229Z,101915.75
2023-02-28T07:26:38.085Z,101921.59
2023-02-28T07:29:06.819Z,101918.97
2023-02-28T07:31:34.739Z,101831.88
2023-02-28T07:34:04.598Z,101929.34
2023-02-28T07:36:32.774Z,101847.25
2023-02-28T07:39:01.081Z,101925.94
2023-02-28T07:41:31.306Z,101930.25
2023-02-28T07:44:00.554Z,101936.91
2023-02-28T07:46:30.957Z,101929.03
2023-02-28T07:49:00.511Z,101932.47
2023-02-28T07:51:30.133Z,101930.56
2023-02-28T07:53:58.568Z,101918.53
2023-02-28T07:56:26.379Z,101932.59
2023-02-28T07:58:54.526Z,101930.94
2023-02-28T08:01:22.843Z,101930.78
2023-02-28T08:03:50.746Z,101921.59
2023-02-28T08:06:23.458Z,101926.50
2023-02-28T08:08:53.349Z,101920.97
2023-02-28T08:11:21.468Z,101855.94
2023-02-28T08:13:49.527Z,101928.31
2023-02-28T08:16:22.236Z,101912.84
2023-02-28T08:18:51.622Z,101924.75
2023-02-28T08:21:20.178Z,101938.09
2023-02-28T08:23:49.560Z,101931.88
2023-02-28T08:26:19.300Z,101892.34
2023-02-28T08:28:47.470Z,101924.41
2023-02-28T08:31:17.309Z,101925.66
2023-02-28T08:33:46.717Z,101934.09
2023-02-28T08:36:14.711Z,101919.75
2023-02-28T08:38:42.731Z,101901.31
2023-02-28T08:41:15.532Z,101942.09
2023-02-28T08:43:45.092Z,101933.41
2023-02-28T08:46:15.054Z,101870.41
2023-02-28T08:48:43.028Z,101909.31
2023-02-28T08:51:12.741Z,101933.34
2023-02-28T08:53:41.887Z,101932.63
2023-02-28T08:56:12.385Z,101921.47
2023-02-28T08:58:40.594Z,101929.28
2023-02-28T09:01:15.115Z,101923.84
2023-02-28T09:03:44.144Z,101927.41
2023-02-28T09:06:12.596Z,101931.94
2023-02-28T09:08:41.138Z,101929.16
2023-02-28T09:11:09.391Z,101923.59
2023-02-28T09:13:37.799Z,101924.72
2023-02-28T09:16:08.255Z,101910.66
2023-02-28T09:18:38.279Z,101926.94
2023-02-28T09:21:06.886Z,101868.81
2023-02-28T09:23:34.981Z,101937.69
2023-02-28T09:26:03.254Z,101938.81
2023-02-28T09:28:31.530Z,101932.97
2023-02-28T09:30:59.963Z,101942.66
2023-02-28T09:33:28.486Z,101944.72
2023-02-28T09:36:03.173Z,101901.03
2023-02-28T09:38:31.309Z,101940.44
2023-02-28T09:41:01.570Z,101946.72
2023-02-28T09:43:34.148Z,101938.19
2023-02-28T09:46:07.771Z,101915.75
2023-02-28T09:48:41.242Z,101937.56
2023-02-28T09:51:26.124Z,101943.19
2023-02-28T09:54:01.289Z,101935.91
2023-02-28T09:56:38.564Z,101935.81
2023-02-28T09:59:17.319Z,101932.69
2023-02-28T10:01:56.064Z,101832.78
2023-02-28T10:04:39.217Z,101941.03
2023-02-28T10:07:20.274Z,101929.22
2023-02-28T10:09:53.882Z,101945.84
2023-02-28T10:12:22.150Z,101937.09
2023-02-28T10:14:53.730Z,101935.44
2023-02-28T10:17:25.276Z,101931.56
2023-02-28T10:20:01.677Z,101936.81
2023-02-28T10:22:39.839Z,101932.28
2023-02-28T10:25:19.670Z,101904.34
2023-02-28T10:27:47.537Z,101937.69
2023-02-28T10:30:16.413Z,101933.63
2023-02-28T10:32:52.019Z,101926.84
2023-02-28T10:35:21.942Z,101927.97
2023-02-28T10:37:53.390Z,101931.06
2023-02-28T10:40:31.684Z,101928.47
2023-02-28T10:43:01.531Z,101930.75
2023-02-28T10:45:32.888Z,101916.00
2023-02-28T10:48:03.790Z,101929.63
2023-02-28T10:50:37.571Z,101917.97
2023-02-28T10:53:36.178Z,101927.81
2023-02-28T10:56:18.709Z,101920.31
2023-02-28T10:58:53.369Z,101919.47
2023-02-28T11:01:23.618Z,101911.72
2023-02-28T11:03:51.748Z,101912.69
2023-02-28T11:06:23.383Z,101880.59
2023-02-28T11:08:55.870Z,101910.09
2023-02-28T11:11:26.269Z,101914.81
2023-02-28T11:13:56.680Z,101901.63
2023-02-28T11:16:35.127Z,101908.16
2023-02-28T11:19:03.852Z,101901.53
2023-02-28T11:21:34.760Z,101904.28
2023-02-28T11:24:14.288Z,101804.91
2023-02-28T11:26:44.510Z,101874.41
2023-02-28T11:29:13.719Z,101904.50
2023-02-28T11:31:41.665Z,101895.84
2023-02-28T11:34:27.242Z,101896.06
2023-02-28T11:36:57.558Z,101894.47
2023-02-28T11:39:27.892Z,101880.94
2023-02-28T11:42:18.910Z,101880.69
2023-02-28T11:45:05.425Z,101880.06
2023-02-28T11:47:39.182Z,101731.75
2023-02-28T11:50:22.763Z,101860.47
2023-02-28T11:52:54.921Z,101876.47
2023-02-28T11:55:28.148Z,101867.41
2023-02-28T11:58:22.210Z,101848.97
2023-02-28T12:01:03.784Z,101853.19
2023-02-28T12:03:42.678Z,101852.38
2023-02-28T12:06:20.773Z,101845.91
2023-02-28T12:09:03.432Z,101850.22
2023-02-28T12:11:54.938Z,101842.59
2023-02-28T12:14:49.216Z,101819.41
2023-02-28T12:17:28.850Z,101830.09
2023-02-28T12:20:04.708Z,101838.09
2023-02-28T12:22:34.466Z,101833.53
2023-02-28T12:25:24.088Z,101829.03
2023-02-28T12:27:55.389Z,101830.22
2023-02-28T12:30:27.620Z,101828.56
2023-02-28T12:32:58.889Z,101829.31
2023-02-28T12:35:34.061Z,101820.75
2023-02-28T12:38:07.949Z,101828.56
2023-02-28T12:40:45.533Z,101811.72
2023-02-28T12:43:17.237Z,101808.72
2023-02-28T12:45:50.502Z,101792.06
2023-02-28T12:48:25.672Z,101801.00
2023-02-28T12:50:53.901Z,101776.91
2023-02-28T12:53:29.973Z,101773.44
2023-02-28T12:56:10.395Z,101816.22
2023-02-28T12:58:43.439Z,101806.31
2023-02-28T13:01:31.974Z,101802.16
2023-02-28T13:04:25.932Z,101808.09
2023-02-28T13:07:12.734Z,101783.34
2023-02-28T13:09:42.133Z,101797.69
2023-02-28T13:12:15.916Z,101793.06
2023-02-28T13:14:45.763Z,101766.16
2023-02-28T13:17:20.991Z,101794.94
2023-02-28T13:20:00.275Z,101772.97
2023-02-28T13:22:43.166Z,101787.75
2023-02-28T13:25:54.528Z,101788.03
2023-02-28T13:29:08.300Z,101786.34
2023-02-28T13:32:13.266Z,101792.38
2023-02-28T13:34:49.454Z,101771.91
2023-02-28T13:37:36.808Z,101780.81
2023-02-28T13:40:37.893Z,101772.03
2023-02-28T13:43:10.342Z,101750.72
2023-02-28T13:45:39.476Z,101765.97
2023-02-28T13:48:18.900Z,101766.06
2023-02-28T13:50:48.379Z,101763.53
2023-02-28T13:53:58.989Z,101759.81
2023-02-28T13:56:42.993Z,101759.84
2023-02-28T13:59:26.967Z,101755.38
2023-02-28T14:02:13.674Z,101670.66
2023-02-28T14:04:56.408Z,101745.59
2023-02-28T14:07:30.547Z,101757.72
2023-02-28T14:10:06.490Z,101710.88
2023-02-28T14:13:14.574Z,101745.59
2023-02-28T14:15:51.682Z,101738.63
2023-02-28T14:18:29.575Z,101711.06
2023-02-28T14:21:04.494Z,101737.75
2023-02-28T14:24:05.011Z,101741.94
2023-02-28T14:27:13.926Z,101731.47
2023-02-28T14:30:08.144Z,101739.63
2023-02-28T14:32:43.957Z,101725.47
2023-02-28T14:35:24.554Z,101741.34
2023-02-28T14:37:53.032Z,101734.16
2023-02-28T14:40:28.434Z,101719.94
2023-02-28T14:43:00.628Z,101736.81
2023-02-28T14:45:31.418Z,101729.69
2023-02-28T14:48:01.089Z,101739.28
2023-02-28T14:50:32.564Z,101729.69
2023-02-28T14:53:00.976Z,101712.00
2023-02-28T14:55:32.212Z,101707.44
2023-02-28T14:58:04.241Z,101740.22
2023-02-28T15:00:33.630Z,101735.91
2023-02-28T15:03:03.113Z,101738.56
2023-02-28T15:05:32.904Z,101619.31
2023-02-28T15:08:07.856Z,101743.91
2023-02-28T15:10:36.587Z,101746.63
2023-02-28T15:13:08.875Z,101754.50
2023-02-28T15:16:05.079Z,101741.28
2023-02-28T15:18:40.446Z,101750.97
2023-02-28T15:21:13.301Z,101746.47
2023-02-28T15:23:44.213Z,101741.28
2023-02-28T15:26:17.751Z,101747.44
2023-02-28T15:28:47.812Z,101752.44
2023-02-28T15:31:27.981Z,101722.16
2023-02-28T15:33:56.433Z,101750.63
2023-02-28T15:36:28.945Z,101707.03
2023-02-28T15:38:59.587Z,101740.88
2023-02-28T15:41:40.026Z,101750.72
2023-02-28T15:44:27.662Z,101752.25
2023-02-28T15:46:58.989Z,101695.38
2023-02-28T15:49:27.741Z,101736.38
2023-02-28T15:51:58.509Z,101593.19
2023-02-28T15:54:31.195Z,101749.69
2023-02-28T15:57:02.358Z,101743.41
2023-02-28T15:59:33.034Z,101747.84
2023-02-28T16:02:15.133Z,101628.69
2023-02-28T16:05:01.853Z,101746.09
2023-02-28T16:07:30.468Z,101745.06
2023-02-28T16:09:58.282Z,101745.19
2023-02-28T16:12:30.201Z,101749.56
2023-02-28T16:15:03.397Z,101752.00
2023-02-28T16:17:34.881Z,101751.06
2023-02-28T16:20:04.223Z,101756.50
2023-02-28T16:22:31.962Z,101752.88
2023-02-28T16:24:59.733Z,101751.03
2023-02-28T16:27:33.259Z,101732.22
2023-02-28T16:30:03.118Z,101748.13
2023-02-28T16:32:31.978Z,101755.19
2023-02-28T16:34:59.800Z,101723.19
2023-02-28T16:37:29.474Z,101741.81
2023-02-28T16:39:57.273Z,101693.78
2023-02-28T16:42:27.540Z,101748.03
2023-02-28T16:44:55.494Z,101755.81
2023-02-28T16:47:24.765Z,101753.19
2023-02-28T16:49:52.596Z,101767.13
2023-02-28T16:52:20.518Z,101767.06
2023-02-28T16:54:48.531Z,101765.28
2023-02-28T16:57:22.240Z,101772.28
2023-02-28T16:59:51.666Z,101779.19
2023-02-28T17:02:21.940Z,101783.56
2023-02-28T17:04:51.363Z,101779.91
2023-02-28T17:07:19.480Z,101718.41
2023-02-28T17:09:47.692Z,101744.25
2023-02-28T17:12:15.637Z,101778.97
2023-02-28T17:14:43.709Z,101784.19
2023-02-28T17:17:19.251Z,101783.31
2023-02-28T17:19:47.100Z,101784.16
2023-02-28T17:22:16.642Z,101741.31
2023-02-28T17:24:46.381Z,101779.53
2023-02-28T17:27:14.872Z,101783.75
2023-02-28T17:29:42.826Z,101790.66
2023-02-28T17:32:17.878Z,101792.34
2023-02-28T17:34:47.076Z,101787.75
2023-02-28T17:37:16.584Z,101800.06
2023-02-28T17:39:44.466Z,101800.59
2023-02-28T17:42:12.613Z,101803.75
2023-02-28T17:44:40.396Z,101776.78
2023-02-28T17:47:08.201Z,101785.59
2023-02-28T17:49:36.147Z,101810.31
2023-02-28T17:52:04.078Z,101805.69
2023-02-28T17:54:33.215Z,101817.78
2023-02-28T17:57:01.072Z,101788.25
2023-02-28T17:59:34.080Z,101733.47
2023-02-28T18:02:02.111Z,101824.63
2023-02-28T18:04:30.019Z,101815.53
2023-02-28T18:07:00.815Z,101822.28
2023-02-28T18:09:29.136Z,101817.56
2023-02-28T18:11:58.473Z,101819.09
2023-02-28T18:14:27.397Z,101821.41
2023-02-28T18:16:56.258Z,101781.22
2023-02-28T18:19:25.180Z,101820.56
2023-02-28T18:21:55.069Z,101822.19
2023-02-28T18:24:25.062Z,101822.84
2023-02-28T18:26:52.983Z,101788.25
2023-02-28T18:29:23.761Z,101814.63
2023-02-28T18:31:52.053Z,101801.81
2023-02-28T18:34:20.600Z,101821.34
2023-02-28T18:36:50.440Z,101759.66
2023-02-28T18:39:19.113Z,101818.66
2023-02-28T18:41:47.168Z,101813.44
2023-02-28T18:44:20.656Z,101818.16
2023-02-28T18:46:50.905Z,101817.13
2023-02-28T18:49:19.041Z,101804.56
2023-02-28T18:51:47.794Z,101816.94
2023-02-28T18:54:17.020Z,101820.25
2023-02-28T18:56:45.277Z,101824.44
2023-02-28T18:59:13.764Z,101829.84
2023-02-28T19:01:41.581Z,101808.09
2023-02-28T19:04:13.934Z,101783.94
2023-02-28T19:06:42.534Z,101823.09
2023-02-28T19:09:10.729Z,101820.25
2023-02-28T19:11:39.016Z,101799.56
2023-02-28T19:14:06.876Z,101695.63
2023-02-28T19:16:34.873Z,101814.13
2023-02-28T19:19:03.397Z,101786.97
2023-02-28T19:21:32.708Z,101785.13
2023-02-28T19:24:03.419Z,101804.59
2023-02-28T19:26:31.778Z,101766.22
2023-02-28T19:29:02.726Z,101820.47
2023-02-28T19:31:30.884Z,101685.66
2023-02-28T19:33:59.148Z,101816.91
2023-02-28T19:36:27.465Z,101809.72
2023-02-28T19:38:56.751Z,101822.66
2023-02-28T19:41:24.529Z,101782.91
2023-02-28T19:43:54.423Z,101831.06
2023-02-28T19:46:22.453Z,101830.28
2023-02-28T19:48:50.514Z,101824.84
2023-02-28T19:51:18.902Z,101791.47
2023-02-28T19:53:46.840Z,101674.19
2023-02-28T19:56:16.242Z,101824.88
2023-02-28T19:58:44.156Z,101802.66
2023-02-28T20:01:13.985Z,101821.88
2023-02-28T20:03:42.865Z,101806.47
2023-02-28T20:06:15.027Z,101812.22
2023-02-28T20:08:43.396Z,101800.41
2023-02-28T20:11:14.429Z,101807.13
2023-02-28T20:13:43.979Z,101823.00
2023-02-28T20:16:13.584Z,101825.56
2023-02-28T20:18:44.073Z,101839.50
2023-02-28T20:21:12.635Z,101585.78
2023-02-28T20:23:40.554Z,101816.19
2023-02-28T20:26:09.887Z,101846.44
2023-02-28T20:28:38.420Z,101837.38
2023-02-28T20:31:13.837Z,101828.22
2023-02-28T20:33:42.288Z,101843.53
2023-02-28T20:36:11.861Z,101847.03
2023-02-28T20:38:41.588Z,101838.19
2023-02-28T20:41:09.946Z,101838.16
2023-02-28T20:43:38.119Z,101846.97
2023-02-28T20:46:06.768Z,101854.47
2023-02-28T20:48:36.802Z,101803.25
2023-02-28T20:51:05.240Z,101828.50
2023-02-28T20:53:35.152Z,101853.66
2023-02-28T20:56:05.738Z,101840.88
2023-02-28T20:58:35.866Z,101857.69
2023-02-28T21:01:03.645Z,101852.97
2023-02-28T21:03:31.940Z,101861.00
2023-02-28T21:06:05.055Z,101861.00
2023-02-28T21:08:34.801Z,101862.53
2023-02-28T21:11:02.868Z,101844.78
2023-02-28T21:13:30.698Z,101794.88
2023-02-28T21:15:58.616Z,101866.13
2023-02-28T21:18:26.585Z,101878.31
2023-02-28T21:20:54.544Z,101831.13
2023-02-28T21:23:23.805Z,101866.91
2023-02-28T21:25:51.678Z,101859.97
2023-02-28T21:28:19.590Z,101811.94
2023-02-28T21:30:47.561Z,101860.09
2023-02-28T21:33:15.577Z,101831.19
2023-02-28T21:35:44.260Z,101826.69
2023-02-28T21:38:12.241Z,101841.91
2023-02-28T21:40:41.955Z,101852.59
2023-02-28T21:43:09.755Z,101764.19
2023-02-28T21:45:37.703Z,101838.72
2023-02-28T21:48:05.675Z,101829.09
2023-02-28T21:50:33.586Z,101842.16
2023-02-28T21:53:01.455Z,101743.22
2023-02-28T21:55:29.590Z,101838.75
2023-02-28T21:57:58.996Z,101864.28
2023-02-28T22:00:27.141Z,101855.00
2023-02-28T22:02:55.065Z,101770.78
2023-02-28T22:05:23.072Z,101838.41
2023-02-28T22:07:51.018Z,101864.00
2023-02-28T22:10:18.949Z,101866.00
2023-02-28T22:12:47.029Z,101858.38
2023-02-28T22:15:16.568Z,101827.81
2023-02-28T22:17:45.175Z,101861.97
2023-02-28T22:20:13.699Z,101860.06
2023-02-28T22:22:41.713Z,101728.97
2023-02-28T22:25:10.725Z,101867.69
2023-02-28T22:27:38.522Z,101869.97
2023-02-28T22:30:07.519Z,101865.34
2023-02-28T22:32:37.110Z,101867.28
2023-02-28T22:35:05.453Z,101848.50
2023-02-28T22:37:33.406Z,101866.75
2023-02-28T22:40:01.367Z,101849.78
2023-02-28T22:42:29.174Z,101874.03
2023-02-28T22:44:57.188Z,101874.50
2023-02-28T22:47:26.497Z,101871.13
2023-02-28T22:49:56.147Z,101876.00
2023-02-28T22:52:24.135Z,101856.03
2023-02-28T22:54:53.297Z,101821.63
2023-02-28T22:57:21.319Z,101862.06
2023-02-28T22:59:49.227Z,101831.41
2023-02-28T23:02:17.128Z,101854.69
2023-02-28T23:04:45.195Z,101829.63
2023-02-28T23:07:15.311Z,101849.28
2023-02-28T23:09:42.894Z,101852.06
2023-02-28T23:12:10.795Z,101847.47
2023-02-28T23:14:38.572Z,101838.09
2023-02-28T23:17:06.811Z,101849.75
2023-02-28T23:19:34.556Z,101855.16
2023-02-28T23:22:05.493Z,101853.06
2023-02-28T23:24:36.532Z,101808.13
2023-02-28T23:27:06.896Z,101831.16
2023-02-28T23:29:35.613Z,101813.78
2023-02-28T23:32:04.250Z,101859.88
2023-02-28T23:34:32.659Z,101852.16
2023-02-28T23:37:02.517Z,101865.63
2023-02-28T23:39:32.336Z,101855.69
2023-02-28T23:42:02.152Z,101869.88
2023-02-28T23:44:30.081Z,101865.00
2023-02-28T23:46:57.959Z,101859.63
2023-02-28T23:49:25.816Z,101860.44
2023-02-28T23:51:54.297Z,101863.06
2023-02-28T23:54:22.328Z,101866.72
2023-02-28T23:56:50.454Z,101865.84
2023-02-28T23:59:20.104Z,101867.75
